Claudio Trevisan

Chefscout - AC Milan
19 Aug 2027
Donnerstag
Verarbeitung

Persönlichkeit

Anpassungsfähigkeit (7) Ehrgeiz (6) Kontroverse (17) Loyalität (12) Druck (17) Professionalität (9) Fairness (15) Temperament (12)

Profil

Trainerstil Demokratisch
Lizenz Nationale A
Entschlossenheit 6
Menschenführung 16
Motivation 13
Disziplin 12
Arbeitszufriedenheit
63%
Ermüdung
0%
Rolle Chefscout
Gehalt 61.6K p/W
Vertrag 14.03.2028

Leistung

Verhalten Gut
Trainingseffektivität
36%
Spielerentwicklung
75%
Verletzungsprävention
30%
Taktische Umsetzung
60%

Letzte Ereignisse

Spieler begutachtet jetzt
Nahm an einer Scouting-Besprechung teil jetzt
Nahm an einer Scouting-Besprechung teil jetzt
Nahm an einer Scouting-Besprechung teil jetzt
Empfahl ein Transferziel jetzt
Nahm an einer Scouting-Besprechung teil 7T her
Nahm an einer Scouting-Besprechung teil 7T her
Empfahl ein Transferziel 7T her

Aktuell beobachtet

105
Spieler Verein Status Fähigkeit Vertrauen Beobachtet Zuletzt beobachtet Letzte Stimme
Kian Fitz-Jim Torino Aktiv 148 / 149 40% 1 18.08.2027 -
Mario Mitaj Al-Ittihad Aktiv 124 / 146 40% 1 18.08.2027 -
Martin Baturina Como Aktiv 142 / 149 40% 1 16.08.2027 -
Pape Matar Sarr Tottenham Aktiv 149 / 151 40% 1 16.08.2027 -
Jofre Torrents Ajax Aktiv 124 / 140 40% 7 21.06.2027 -
Samuele di Benedetto Bari Aktiv 117 / 126 40% 1 21.06.2027 -
Yussif Saidu Zaragoza Aktiv 124 / 128 40% 6 02.06.2027 -
Finn Jeltsch VfB Stuttgart Aktiv 129 / 147 40% 7 01.06.2027 -
Kostantis Tzolakis Hull City Verloren 136 / 139 67% 1 01.06.2027 -
Borja Sainz Fiorentina Aktiv 146 / 150 40% 1 31.05.2027 -
Samuel Lucero Defensa y Justicia Aktiv 120 / 121 40% 6 28.05.2027 -
Ezra Mayers West Ham United Aktiv 126 / 125 40% 2 22.05.2027 -
Veljko Milosavljević Aston Villa Aktiv 134 / 129 40% 3 21.05.2027 -
Matvey Kislyak CSKA Moscow Aktiv 139 / 147 40% 4 15.05.2027 -
Christ Inao Oulaï Fiorentina Aktiv 131 / 131 40% 3 13.05.2027 -
Luka Vušković Manchester United Aktiv 137 / 138 40% 3 12.05.2027 -
Ibrahim Maza Bayer Leverkusen Aktiv 149 / 144 40% 6 11.05.2027 -
Juan Giménez Celta Aktiv 117 / 132 40% 3 10.05.2027 -
Alexandro Maidana Talleres Aktiv 107 / 119 40% 5 07.05.2027 -
Sascha Britschgi Padova Aktiv 110 / 124 40% 9 06.05.2027 -
Agustín Medina Valencia Aktiv 116 / 117 40% 5 05.05.2027 -
Dmitry Pestryakov Dinamo Moscow Aktiv 101 / 110 40% 1 05.05.2027 -
Karim Coulibaly RC Strasbourg Aktiv 113 / 128 40% 5 03.05.2027 -
Valentin Atangana Al-Ahli Aktiv 116 / 143 40% 5 30.04.2027 -
Abdoulaye Kanté Al-Ettifaq Aktiv 108 / 132 40% 2 29.04.2027 -
Jonathan De Irastorza Independiente Aktiv 119 / 123 40% 2 23.04.2027 -
Bohdan Budko AZ Aktiv 122 / 116 40% 2 20.04.2027 -
Nazareno Roselli Defensa y Justicia Aktiv 113 / 122 40% 4 18.04.2027 -
Dayann Methalie Aston Villa Aktiv 125 / 140 40% 1 15.04.2027 -
Juan Rodríguez Cagliari Aktiv 116 / 119 40% 2 14.04.2027 -
Josh King Chelsea Aktiv 140 / 139 40% 2 12.04.2027 -
Chema Andrés Arsenal Aktiv 144 / 147 40% 4 08.04.2027 -
Dean Huijsen Villarreal Aktiv 137 / 159 40% 3 03.04.2027 -
Santiago Fernández Talleres Aktiv 108 / 128 40% 1 21.03.2027 -
Joško Gvardiol Napoli Aktiv 168 / 162 40% 5 09.02.2027 -
Manu Koné AS Roma Aktiv 156 / 169 40% 17 06.02.2027 Beobachten
Pierre Kalulu Juventus Aktiv 159 / 155 40% 3 06.02.2027 -
Franculino Crystal Palace Verhandlung 137 / 141 67% 1 18.01.2027 -
Thiago Almada AC Milan Aktiv 145 / 146 69% 1 11.01.2027 -
Santiago Castro AS Roma Aktiv 142 / 157 40% 1 11.01.2027 -
Santiago Pierotti Lecce Aktiv 136 / 140 40% 1 11.01.2027 -
Khvicha Kvaratskhelia Paris Saint-Germain Aktiv 165 / 165 91% 1 01.01.2027 Befürworten
Raúl Rangel Sporting CP Verhandlung 132 / 132 66% 1 01.01.2027 -
Diogo Costa Manchester City Verhandlung 160 / 160 69% 1 01.01.2027 -
Randal Kolo Muani Juventus Aktiv 157 / 145 40% 2 31.12.2026 -
Romano Schmid Frosinone Aktiv 133 / 145 40% 1 31.12.2026 -
Manuel Locatelli Juventus Aktiv 150 / 142 40% 4 30.12.2026 -
Dušan Vlahović Juventus Aktiv 158 / 151 40% 2 29.12.2026 Mehr Infos nötig
Jens Odgaard Bologna Aktiv 134 / 149 40% 1 29.12.2026 -
Bremer Juventus Aktiv 174 / 166 40% 13 27.12.2026 -
Assane Diao Lazio Aktiv 141 / 149 40% 3 24.12.2026 -
Manfred Ugalde Spartak Moscow Aktiv 123 / 122 40% 1 24.12.2026 -
Kyrylo Fesiun Shakhtar Aktiv 126 / 117 40% 1 24.12.2026 -
Théo Hernández Al-Hilal Aktiv 138 / 164 40% 5 23.12.2026 -
Ruben van Bommel Ferencvaros Aktiv 125 / 140 40% 2 22.12.2026 -
Mateo Pellegrino Fiorentina Aktiv 139 / 146 40% 1 22.12.2026 -
Zakaria Aboukhlal Torino Aktiv 129 / 139 40% 1 11.12.2026 -
Trevoh Chalobah Como Aktiv 147 / 145 40% 6 07.12.2026 -
Alessandro Buongiorno Sassuolo Aktiv 146 / 165 40% 8 05.12.2026 -
Giacomo Raspadori Atalanta Aktiv 153 / 147 40% 2 04.12.2026 -
Fabián Paris Saint-Germain Aktiv 170 / 174 40% 4 22.11.2026 -
Nicolò Zaniolo Udinese Aktiv 149 / 135 40% 1 17.11.2026 -
Nicolás Sumavil Platense Aktiv 123 / 112 40% 2 13.11.2026 -
Donyell Malen AS Roma Aktiv 152 / 152 40% 1 11.11.2026 -
Kévin Denkey FC Cincinnati Aktiv 113 / 130 40% 1 31.10.2026 -
Gianluca Mancini AS Roma Aktiv 146 / 161 40% 2 27.10.2026 -
Adnan Courtois KV Oostende Aktiv 131 / 137 40% 1 26.10.2026 -
Patrick Schulte Columbus Crew Aktiv 129 / 138 40% 1 25.10.2026 -
Jeremie Frimpong Liverpool Aktiv 156 / 152 40% 1 22.10.2026 -
Boubacar Kamara Aston Villa Aktiv 158 / 172 40% 2 20.10.2026 -
Youri Tielemans Manchester United Aktiv 157 / 164 40% 4 20.10.2026 -
Rúben Dias Manchester City Aktiv 158 / 179 40% 2 19.10.2026 -
Matheus Nunes Manchester City Aktiv 165 / 150 40% 1 19.10.2026 -
Ramiro Ruiz Rodríguez Atlético Tucumán Aktiv 116 / 123 40% 1 19.10.2026 -
Kai Havertz Arsenal Aktiv 158 / 149 40% 1 18.10.2026 -
Sven Botman Newcastle United Aktiv 158 / 164 40% 4 16.10.2026 -
Tommy Conway Middlesbrough Aktiv 123 / 116 40% 1 16.10.2026 -
Wesley Fofana Chelsea Aktiv 150 / 167 40% 5 15.10.2026 -
Tino Livramento Newcastle United Aktiv 161 / 167 40% 1 12.10.2026 -
Nico González Newcastle United Aktiv 154 / 151 40% 3 11.10.2026 -
Michael Cooper Sheffield United Aktiv 120 / 127 40% 1 10.10.2026 -
Anatolii Trubin Juventus Aktiv 159 / 156 40% 1 10.10.2026 -
Marc Guéhi Manchester City Aktiv 169 / 160 40% 4 08.10.2026 -
Gabriel Arsenal Aktiv 173 / 179 40% 3 07.10.2026 -
Levi Colwill Chelsea Aktiv 153 / 155 40% 5 06.10.2026 -
Matthijs de Ligt Manchester United Aktiv 158 / 149 40% 1 04.10.2026 -
Morgan Rogers Chelsea Aktiv 164 / 154 40% 1 04.10.2026 -
Georginio Rutter Brighton Aktiv 147 / 147 40% 1 04.10.2026 -
Declan Rice Arsenal Aktiv 175 / 176 40% 4 29.09.2026 Beobachten
Amadou Onana Aston Villa Aktiv 147 / 159 40% 1 29.09.2026 -
Manuel Ospina Cortulua Aktiv 117 / 114 40% 1 29.09.2026 -
Matheus Cunha Manchester United Aktiv 164 / 167 40% 1 29.09.2026 -
Alexis Cuello San Lorenzo Aktiv 133 / 131 40% 1 28.09.2026 -
Nicolò Tresoldi Club Brugge Aktiv 138 / 125 40% 1 28.09.2026 -
Alexis Mac Allister Liverpool Aktiv 161 / 155 40% 2 27.09.2026 -
Ozziel Herrera Tigres Aktiv 130 / 115 40% 1 22.09.2026 -
Moisés Caicedo Chelsea Aktiv 160 / 176 40% 2 20.09.2026 -
Jan Paul van Hecke Tottenham Aktiv 148 / 151 40% 1 19.09.2026 -
Ryan Gravenberch Liverpool Aktiv 167 / 162 40% 2 18.09.2026 -
Micky van de Ven Tottenham Aktiv 144 / 159 40% 1 14.09.2026 -
Erick Reyes Toluca Aktiv 139 / 154 40% 1 13.09.2026 -
Esteban Glellel Quilmes Aktiv 108 / 108 40% 1 12.09.2026 -
Leon Goretzka Aston Villa Aktiv 147 / 161 40% 1 07.08.2026 -
Antoine Semenyo Manchester City Aktiv 148 / 158 40% 1 05.08.2026 -
Rodri Barcelona Aktiv 174 / 183 40% 1 02.08.2026 -